sensor_id;sensor_type;location;lat;lon;timestamp;P1;durP1;ratioP1;P2;durP2;ratioP2
10450;SDS011;5273;51.290;6.918;2024-03-22T00:00:55;34.97;;;18.70;;
10450;SDS011;5273;51.290;6.918;2024-03-22T00:03:23;33.90;;;18.73;;
10450;SDS011;5273;51.290;6.918;2024-03-22T00:05:50;36.50;;;19.10;;
10450;SDS011;5273;51.290;6.918;2024-03-22T00:08:16;35.80;;;18.67;;
10450;SDS011;5273;51.290;6.918;2024-03-22T00:10:43;33.10;;;18.10;;
10450;SDS011;5273;51.290;6.918;2024-03-22T00:13:08;36.37;;;19.43;;
10450;SDS011;5273;51.290;6.918;2024-03-22T00:15:35;34.90;;;18.70;;
10450;SDS011;5273;51.290;6.918;2024-03-22T00:18:02;37.17;;;20.67;;
10450;SDS011;5273;51.290;6.918;2024-03-22T00:20:30;37.25;;;18.85;;
10450;SDS011;5273;51.290;6.918;2024-03-22T00:22:56;34.07;;;18.63;;
10450;SDS011;5273;51.290;6.918;2024-03-22T00:25:23;36.17;;;20.43;;
10450;SDS011;5273;51.290;6.918;2024-03-22T00:27:48;36.20;;;19.90;;
10450;SDS011;5273;51.290;6.918;2024-03-22T00:30:15;35.13;;;18.90;;
10450;SDS011;5273;51.290;6.918;2024-03-22T00:32:41;33.60;;;19.10;;
10450;SDS011;5273;51.290;6.918;2024-03-22T00:35:09;38.13;;;20.63;;
10450;SDS011;5273;51.290;6.918;2024-03-22T00:37:36;38.80;;;19.97;;
10450;SDS011;5273;51.290;6.918;2024-03-22T00:40:04;36.47;;;19.60;;
10450;SDS011;5273;51.290;6.918;2024-03-22T00:42:31;33.42;;;18.48;;
10450;SDS011;5273;51.290;6.918;2024-03-22T00:44:58;37.93;;;19.10;;
10450;SDS011;5273;51.290;6.918;2024-03-22T00:47:23;31.65;;;18.17;;
10450;SDS011;5273;51.290;6.918;2024-03-22T00:49:50;32.23;;;19.00;;
10450;SDS011;5273;51.290;6.918;2024-03-22T00:52:16;37.03;;;19.52;;
10450;SDS011;5273;51.290;6.918;2024-03-22T00:54:44;40.53;;;18.53;;
10450;SDS011;5273;51.290;6.918;2024-03-22T00:57:10;35.67;;;18.30;;
10450;SDS011;5273;51.290;6.918;2024-03-22T00:59:36;32.87;;;18.67;;
10450;SDS011;5273;51.290;6.918;2024-03-22T01:02:02;36.70;;;18.83;;
10450;SDS011;5273;51.290;6.918;2024-03-22T01:04:29;34.43;;;17.43;;
10450;SDS011;5273;51.290;6.918;2024-03-22T01:06:55;32.80;;;17.60;;
10450;SDS011;5273;51.290;6.918;2024-03-22T01:09:22;35.83;;;18.97;;
10450;SDS011;5273;51.290;6.918;2024-03-22T01:11:49;36.00;;;18.50;;
10450;SDS011;5273;51.290;6.918;2024-03-22T01:14:16;35.23;;;17.73;;
10450;SDS011;5273;51.290;6.918;2024-03-22T01:16:42;31.87;;;16.90;;
10450;SDS011;5273;51.290;6.918;2024-03-22T01:19:08;31.37;;;16.97;;
10450;SDS011;5273;51.290;6.918;2024-03-22T01:21:34;35.03;;;18.20;;
10450;SDS011;5273;51.290;6.918;2024-03-22T01:24:01;32.90;;;17.40;;
10450;SDS011;5273;51.290;6.918;2024-03-22T01:26:27;34.93;;;17.07;;
10450;SDS011;5273;51.290;6.918;2024-03-22T01:28:55;31.13;;;16.37;;
10450;SDS011;5273;51.290;6.918;2024-03-22T01:31:21;35.85;;;16.02;;
10450;SDS011;5273;51.290;6.918;2024-03-22T01:33:48;34.50;;;17.13;;
10450;SDS011;5273;51.290;6.918;2024-03-22T01:36:14;35.53;;;17.50;;
10450;SDS011;5273;51.290;6.918;2024-03-22T01:38:40;32.50;;;17.00;;
10450;SDS011;5273;51.290;6.918;2024-03-22T01:41:06;31.10;;;16.20;;
10450;SDS011;5273;51.290;6.918;2024-03-22T01:43:33;33.67;;;16.63;;
10450;SDS011;5273;51.290;6.918;2024-03-22T01:46:00;29.57;;;16.10;;
10450;SDS011;5273;51.290;6.918;2024-03-22T01:48:27;33.40;;;15.53;;
10450;SDS011;5273;51.290;6.918;2024-03-22T01:50:53;31.30;;;16.03;;
10450;SDS011;5273;51.290;6.918;2024-03-22T01:53:20;31.23;;;16.90;;
10450;SDS011;5273;51.290;6.918;2024-03-22T01:55:47;30.03;;;16.63;;
10450;SDS011;5273;51.290;6.918;2024-03-22T01:58:14;28.23;;;15.83;;
10450;SDS011;5273;51.290;6.918;2024-03-22T02:00:39;33.73;;;17.00;;
10450;SDS011;5273;51.290;6.918;2024-03-22T02:03:08;30.73;;;16.03;;
10450;SDS011;5273;51.290;6.918;2024-03-22T02:05:34;28.30;;;15.83;;
10450;SDS011;5273;51.290;6.918;2024-03-22T02:08:00;31.90;;;16.03;;
10450;SDS011;5273;51.290;6.918;2024-03-22T02:10:26;29.27;;;16.00;;
10450;SDS011;5273;51.290;6.918;2024-03-22T02:12:53;26.53;;;14.70;;
10450;SDS011;5273;51.290;6.918;2024-03-22T02:15:19;30.97;;;15.47;;
10450;SDS011;5273;51.290;6.918;2024-03-22T02:17:46;30.73;;;16.13;;
10450;SDS011;5273;51.290;6.918;2024-03-22T02:20:13;30.50;;;15.43;;
10450;SDS011;5273;51.290;6.918;2024-03-22T02:22:40;33.30;;;15.57;;
10450;SDS011;5273;51.290;6.918;2024-03-22T02:25:08;28.47;;;15.63;;
10450;SDS011;5273;51.290;6.918;2024-03-22T02:27:34;29.70;;;14.60;;
10450;SDS011;5273;51.290;6.918;2024-03-22T02:30:00;28.43;;;14.73;;
10450;SDS011;5273;51.290;6.918;2024-03-22T02:32:27;30.37;;;14.53;;
10450;SDS011;5273;51.290;6.918;2024-03-22T02:34:53;34.93;;;14.57;;
10450;SDS011;5273;51.290;6.918;2024-03-22T02:37:20;26.43;;;14.90;;
10450;SDS011;5273;51.290;6.918;2024-03-22T02:39:46;25.13;;;14.00;;
10450;SDS011;5273;51.290;6.918;2024-03-22T02:42:14;31.03;;;15.87;;
10450;SDS011;5273;51.290;6.918;2024-03-22T02:44:40;24.17;;;14.23;;
10450;SDS011;5273;51.290;6.918;2024-03-22T02:47:08;30.00;;;14.90;;
10450;SDS011;5273;51.290;6.918;2024-03-22T02:49:34;26.47;;;15.53;;
10450;SDS011;5273;51.290;6.918;2024-03-22T02:52:01;32.73;;;17.33;;
10450;SDS011;5273;51.290;6.918;2024-03-22T02:54:27;28.73;;;15.13;;
10450;SDS011;5273;51.290;6.918;2024-03-22T02:56:54;24.70;;;14.07;;
10450;SDS011;5273;51.290;6.918;2024-03-22T02:59:21;25.53;;;14.33;;
10450;SDS011;5273;51.290;6.918;2024-03-22T03:01:51;27.47;;;14.27;;
10450;SDS011;5273;51.290;6.918;2024-03-22T03:04:17;24.60;;;13.43;;
10450;SDS011;5273;51.290;6.918;2024-03-22T03:06:44;25.67;;;14.83;;
10450;SDS011;5273;51.290;6.918;2024-03-22T03:09:10;23.57;;;14.30;;
10450;SDS011;5273;51.290;6.918;2024-03-22T03:11:37;27.77;;;15.70;;
10450;SDS011;5273;51.290;6.918;2024-03-22T03:14:04;24.10;;;14.37;;
10450;SDS011;5273;51.290;6.918;2024-03-22T03:16:32;22.60;;;14.50;;
10450;SDS011;5273;51.290;6.918;2024-03-22T03:18:58;29.20;;;14.63;;
10450;SDS011;5273;51.290;6.918;2024-03-22T03:21:25;25.03;;;14.33;;
10450;SDS011;5273;51.290;6.918;2024-03-22T03:23:51;25.43;;;15.00;;
10450;SDS011;5273;51.290;6.918;2024-03-22T03:26:17;25.40;;;14.67;;
10450;SDS011;5273;51.290;6.918;2024-03-22T03:28:43;24.50;;;14.87;;
10450;SDS011;5273;51.290;6.918;2024-03-22T03:31:10;26.50;;;14.27;;
10450;SDS011;5273;51.290;6.918;2024-03-22T03:33:37;27.87;;;14.23;;
10450;SDS011;5273;51.290;6.918;2024-03-22T03:36:04;21.33;;;13.30;;
10450;SDS011;5273;51.290;6.918;2024-03-22T03:38:30;23.97;;;14.27;;
10450;SDS011;5273;51.290;6.918;2024-03-22T03:40:57;27.57;;;14.73;;
10450;SDS011;5273;51.290;6.918;2024-03-22T03:43:23;21.07;;;13.30;;
10450;SDS011;5273;51.290;6.918;2024-03-22T03:45:50;24.77;;;13.83;;
10450;SDS011;5273;51.290;6.918;2024-03-22T03:48:15;24.93;;;14.53;;
10450;SDS011;5273;51.290;6.918;2024-03-22T03:50:51;25.57;;;13.97;;
10450;SDS011;5273;51.290;6.918;2024-03-22T03:53:17;25.73;;;14.97;;
10450;SDS011;5273;51.290;6.918;2024-03-22T03:55:44;27.27;;;14.37;;
10450;SDS011;5273;51.290;6.918;2024-03-22T03:58:10;25.30;;;15.80;;
10450;SDS011;5273;51.290;6.918;2024-03-22T04:00:37;24.50;;;14.43;;
10450;SDS011;5273;51.290;6.918;2024-03-22T04:03:03;24.77;;;14.27;;
10450;SDS011;5273;51.290;6.918;2024-03-22T04:05:30;27.30;;;14.53;;
10450;SDS011;5273;51.290;6.918;2024-03-22T04:07:57;23.67;;;13.33;;
10450;SDS011;5273;51.290;6.918;2024-03-22T04:10:24;24.77;;;14.80;;
10450;SDS011;5273;51.290;6.918;2024-03-22T04:12:50;22.87;;;13.30;;
10450;SDS011;5273;51.290;6.918;2024-03-22T04:15:16;24.90;;;14.07;;
10450;SDS011;5273;51.290;6.918;2024-03-22T04:17:42;25.33;;;14.43;;
10450;SDS011;5273;51.290;6.918;2024-03-22T04:20:09;28.27;;;15.40;;
10450;SDS011;5273;51.290;6.918;2024-03-22T04:22:36;26.97;;;14.07;;
10450;SDS011;5273;51.290;6.918;2024-03-22T04:25:05;26.80;;;14.20;;
10450;SDS011;5273;51.290;6.918;2024-03-22T04:27:31;26.13;;;14.33;;
10450;SDS011;5273;51.290;6.918;2024-03-22T04:30:01;25.43;;;14.40;;
10450;SDS011;5273;51.290;6.918;2024-03-22T04:32:27;25.03;;;14.63;;
10450;SDS011;5273;51.290;6.918;2024-03-22T04:34:54;24.23;;;14.87;;
10450;SDS011;5273;51.290;6.918;2024-03-22T04:37:20;25.43;;;14.87;;
10450;SDS011;5273;51.290;6.918;2024-03-22T04:39:47;23.43;;;13.67;;
10450;SDS011;5273;51.290;6.918;2024-03-22T04:42:15;23.50;;;14.43;;
10450;SDS011;5273;51.290;6.918;2024-03-22T04:44:42;26.87;;;16.17;;
10450;SDS011;5273;51.290;6.918;2024-03-22T04:47:08;25.23;;;14.13;;
10450;SDS011;5273;51.290;6.918;2024-03-22T04:49:34;24.40;;;13.63;;
10450;SDS011;5273;51.290;6.918;2024-03-22T04:52:00;26.87;;;14.73;;
10450;SDS011;5273;51.290;6.918;2024-03-22T04:54:27;23.37;;;14.47;;
10450;SDS011;5273;51.290;6.918;2024-03-22T04:56:53;26.97;;;14.53;;
10450;SDS011;5273;51.290;6.918;2024-03-22T04:59:21;26.10;;;14.40;;
10450;SDS011;5273;51.290;6.918;2024-03-22T05:01:47;26.40;;;14.80;;
10450;SDS011;5273;51.290;6.918;2024-03-22T05:04:14;25.53;;;14.77;;
10450;SDS011;5273;51.290;6.918;2024-03-22T05:06:39;24.67;;;13.53;;
10450;SDS011;5273;51.290;6.918;2024-03-22T05:09:06;24.73;;;13.17;;
10450;SDS011;5273;51.290;6.918;2024-03-22T05:11:35;26.43;;;13.80;;
10450;SDS011;5273;51.290;6.918;2024-03-22T05:14:01;22.60;;;13.60;;
10450;SDS011;5273;51.290;6.918;2024-03-22T05:16:29;21.30;;;13.50;;
10450;SDS011;5273;51.290;6.918;2024-03-22T05:18:56;18.87;;;13.43;;
10450;SDS011;5273;51.290;6.918;2024-03-22T05:21:22;20.43;;;12.57;;
10450;SDS011;5273;51.290;6.918;2024-03-22T05:23:48;23.03;;;13.00;;
10450;SDS011;5273;51.290;6.918;2024-03-22T05:26:14;20.27;;;13.33;;
10450;SDS011;5273;51.290;6.918;2024-03-22T05:28:41;20.63;;;12.80;;
10450;SDS011;5273;51.290;6.918;2024-03-22T05:31:07;19.33;;;12.40;;
10450;SDS011;5273;51.290;6.918;2024-03-22T05:33:35;22.07;;;12.57;;
10450;SDS011;5273;51.290;6.918;2024-03-22T05:36:01;19.17;;;12.13;;
10450;SDS011;5273;51.290;6.918;2024-03-22T05:38:28;22.57;;;12.47;;
10450;SDS011;5273;51.290;6.918;2024-03-22T05:40:54;22.17;;;12.70;;
10450;SDS011;5273;51.290;6.918;2024-03-22T05:43:20;21.43;;;13.27;;
10450;SDS011;5273;51.290;6.918;2024-03-22T05:45:46;24.50;;;14.00;;
10450;SDS011;5273;51.290;6.918;2024-03-22T05:48:13;20.37;;;11.83;;
10450;SDS011;5273;51.290;6.918;2024-03-22T05:50:41;19.87;;;12.67;;
10450;SDS011;5273;51.290;6.918;2024-03-22T05:53:08;23.47;;;12.93;;
10450;SDS011;5273;51.290;6.918;2024-03-22T05:55:34;22.60;;;12.87;;
10450;SDS011;5273;51.290;6.918;2024-03-22T05:58:00;20.03;;;12.53;;
10450;SDS011;5273;51.290;6.918;2024-03-22T06:00:26;21.37;;;13.53;;
10450;SDS011;5273;51.290;6.918;2024-03-22T06:02:53;19.97;;;12.20;;
10450;SDS011;5273;51.290;6.918;2024-03-22T06:05:19;20.60;;;12.83;;
10450;SDS011;5273;51.290;6.918;2024-03-22T06:07:47;20.50;;;12.57;;
10450;SDS011;5273;51.290;6.918;2024-03-22T06:10:13;22.33;;;13.03;;
10450;SDS011;5273;51.290;6.918;2024-03-22T06:12:40;21.27;;;12.00;;
10450;SDS011;5273;51.290;6.918;2024-03-22T06:15:06;21.03;;;13.63;;
10450;SDS011;5273;51.290;6.918;2024-03-22T06:17:33;19.97;;;12.53;;
10450;SDS011;5273;51.290;6.918;2024-03-22T06:19:59;18.20;;;12.23;;
10450;SDS011;5273;51.290;6.918;2024-03-22T06:22:26;21.05;;;12.30;;
10450;SDS011;5273;51.290;6.918;2024-03-22T06:24:53;19.43;;;12.73;;
10450;SDS011;5273;51.290;6.918;2024-03-22T06:27:20;24.57;;;13.80;;
10450;SDS011;5273;51.290;6.918;2024-03-22T06:29:46;18.83;;;12.13;;
10450;SDS011;5273;51.290;6.918;2024-03-22T06:32:13;19.77;;;12.30;;
10450;SDS011;5273;51.290;6.918;2024-03-22T06:34:38;21.85;;;12.48;;
10450;SDS011;5273;51.290;6.918;2024-03-22T06:37:05;19.27;;;12.60;;
10450;SDS011;5273;51.290;6.918;2024-03-22T06:39:31;16.60;;;11.65;;
10450;SDS011;5273;51.290;6.918;2024-03-22T06:41:59;19.98;;;12.18;;
10450;SDS011;5273;51.290;6.918;2024-03-22T06:44:25;19.38;;;11.32;;
10450;SDS011;5273;51.290;6.918;2024-03-22T06:46:52;15.93;;;10.82;;
10450;SDS011;5273;51.290;6.918;2024-03-22T06:49:18;16.95;;;11.85;;
10450;SDS011;5273;51.290;6.918;2024-03-22T06:51:45;15.68;;;11.30;;
10450;SDS011;5273;51.290;6.918;2024-03-22T06:54:10;19.13;;;11.13;;
10450;SDS011;5273;51.290;6.918;2024-03-22T06:56:37;19.13;;;11.80;;
10450;SDS011;5273;51.290;6.918;2024-03-22T06:59:04;21.92;;;12.57;;
10450;SDS011;5273;51.290;6.918;2024-03-22T07:01:31;18.00;;;11.82;;
10450;SDS011;5273;51.290;6.918;2024-03-22T07:03:57;19.63;;;12.60;;
10450;SDS011;5273;51.290;6.918;2024-03-22T07:06:24;20.67;;;12.25;;
10450;SDS011;5273;51.290;6.918;2024-03-22T07:08:49;18.95;;;12.52;;
10450;SDS011;5273;51.290;6.918;2024-03-22T07:11:16;20.55;;;12.18;;
10450;SDS011;5273;51.290;6.918;2024-03-22T07:13:42;21.35;;;13.05;;
10450;SDS011;5273;51.290;6.918;2024-03-22T07:16:10;18.38;;;12.60;;
10450;SDS011;5273;51.290;6.918;2024-03-22T07:18:36;18.25;;;12.15;;
10450;SDS011;5273;51.290;6.918;2024-03-22T07:21:03;21.73;;;13.82;;
10450;SDS011;5273;51.290;6.918;2024-03-22T07:23:29;20.65;;;12.57;;
10450;SDS011;5273;51.290;6.918;2024-03-22T07:25:56;19.10;;;11.55;;
10450;SDS011;5273;51.290;6.918;2024-03-22T07:28:21;17.50;;;11.82;;
10450;SDS011;5273;51.290;6.918;2024-03-22T07:30:48;17.02;;;11.70;;
10450;SDS011;5273;51.290;6.918;2024-03-22T07:33:16;18.45;;;12.23;;
10450;SDS011;5273;51.290;6.918;2024-03-22T07:35:43;16.60;;;11.48;;
10450;SDS011;5273;51.290;6.918;2024-03-22T07:38:09;19.33;;;11.50;;
10450;SDS011;5273;51.290;6.918;2024-03-22T07:40:36;17.70;;;11.95;;
10450;SDS011;5273;51.290;6.918;2024-03-22T07:43:01;18.40;;;12.60;;
10450;SDS011;5273;51.290;6.918;2024-03-22T07:45:31;20.10;;;13.65;;
10450;SDS011;5273;51.290;6.918;2024-03-22T07:47:57;20.63;;;12.55;;
10450;SDS011;5273;51.290;6.918;2024-03-22T07:50:25;21.73;;;13.27;;
10450;SDS011;5273;51.290;6.918;2024-03-22T07:52:52;19.85;;;13.60;;
10450;SDS011;5273;51.290;6.918;2024-03-22T07:55:18;22.02;;;14.07;;
10450;SDS011;5273;51.290;6.918;2024-03-22T07:57:45;21.10;;;13.77;;
10450;SDS011;5273;51.290;6.918;2024-03-22T08:00:11;20.75;;;14.25;;
10450;SDS011;5273;51.290;6.918;2024-03-22T08:02:38;20.15;;;13.85;;
10450;SDS011;5273;51.290;6.918;2024-03-22T08:05:04;22.52;;;14.95;;
10450;SDS011;5273;51.290;6.918;2024-03-22T08:07:33;22.70;;;14.18;;
10450;SDS011;5273;51.290;6.918;2024-03-22T08:09:59;19.27;;;14.35;;
10450;SDS011;5273;51.290;6.918;2024-03-22T08:12:27;20.90;;;14.15;;
10450;SDS011;5273;51.290;6.918;2024-03-22T08:14:53;23.30;;;16.05;;
10450;SDS011;5273;51.290;6.918;2024-03-22T08:17:20;21.48;;;15.07;;
10450;SDS011;5273;51.290;6.918;2024-03-22T08:19:46;22.17;;;14.52;;
10450;SDS011;5273;51.290;6.918;2024-03-22T08:22:13;23.23;;;14.73;;
10450;SDS011;5273;51.290;6.918;2024-03-22T08:24:40;23.02;;;13.63;;
10450;SDS011;5273;51.290;6.918;2024-03-22T08:27:07;24.65;;;14.95;;
10450;SDS011;5273;51.290;6.918;2024-03-22T08:29:33;19.80;;;14.50;;
10450;SDS011;5273;51.290;6.918;2024-03-22T08:31:59;19.90;;;13.98;;
10450;SDS011;5273;51.290;6.918;2024-03-22T08:34:29;25.83;;;14.77;;
10450;SDS011;5273;51.290;6.918;2024-03-22T08:36:57;21.55;;;13.52;;
10450;SDS011;5273;51.290;6.918;2024-03-22T08:39:23;17.38;;;13.45;;
10450;SDS011;5273;51.290;6.918;2024-03-22T08:41:52;18.80;;;13.02;;
10450;SDS011;5273;51.290;6.918;2024-03-22T08:44:17;16.52;;;12.52;;
10450;SDS011;5273;51.290;6.918;2024-03-22T08:46:44;18.95;;;13.20;;
10450;SDS011;5273;51.290;6.918;2024-03-22T08:49:10;18.88;;;13.73;;
10450;SDS011;5273;51.290;6.918;2024-03-22T08:51:38;20.13;;;13.48;;
10450;SDS011;5273;51.290;6.918;2024-03-22T08:54:04;18.85;;;13.27;;
10450;SDS011;5273;51.290;6.918;2024-03-22T08:56:31;17.15;;;12.52;;
10450;SDS011;5273;51.290;6.918;2024-03-22T08:58:58;17.77;;;12.52;;
10450;SDS011;5273;51.290;6.918;2024-03-22T09:01:25;17.73;;;13.10;;
10450;SDS011;5273;51.290;6.918;2024-03-22T09:03:51;16.00;;;12.23;;
10450;SDS011;5273;51.290;6.918;2024-03-22T09:06:18;16.33;;;11.80;;
10450;SDS011;5273;51.290;6.918;2024-03-22T09:08:46;14.23;;;11.50;;
10450;SDS011;5273;51.290;6.918;2024-03-22T09:11:12;15.57;;;11.60;;
10450;SDS011;5273;51.290;6.918;2024-03-22T09:13:38;16.55;;;12.27;;
10450;SDS011;5273;51.290;6.918;2024-03-22T09:16:06;17.90;;;11.70;;
10450;SDS011;5273;51.290;6.918;2024-03-22T09:18:32;15.02;;;11.25;;
10450;SDS011;5273;51.290;6.918;2024-03-22T09:20:59;17.75;;;10.93;;
10450;SDS011;5273;51.290;6.918;2024-03-22T09:23:25;16.17;;;9.93;;
10450;SDS011;5273;51.290;6.918;2024-03-22T09:25:51;15.38;;;10.20;;
10450;SDS011;5273;51.290;6.918;2024-03-22T09:28:17;12.48;;;9.20;;
10450;SDS011;5273;51.290;6.918;2024-03-22T09:30:44;13.98;;;9.65;;
10450;SDS011;5273;51.290;6.918;2024-03-22T09:33:11;14.27;;;9.25;;
10450;SDS011;5273;51.290;6.918;2024-03-22T09:35:38;12.43;;;9.15;;
10450;SDS011;5273;51.290;6.918;2024-03-22T09:38:04;11.55;;;9.40;;
10450;SDS011;5273;51.290;6.918;2024-03-22T09:40:31;10.82;;;9.10;;
10450;SDS011;5273;51.290;6.918;2024-03-22T09:42:58;12.98;;;8.98;;
10450;SDS011;5273;51.290;6.918;2024-03-22T09:45:29;12.57;;;10.38;;
10450;SDS011;5273;51.290;6.918;2024-03-22T09:47:56;13.73;;;10.38;;
10450;SDS011;5273;51.290;6.918;2024-03-22T09:50:25;13.73;;;9.80;;
10450;SDS011;5273;51.290;6.918;2024-03-22T09:52:51;13.85;;;9.80;;
10450;SDS011;5273;51.290;6.918;2024-03-22T09:55:20;14.52;;;8.20;;
10450;SDS011;5273;51.290;6.918;2024-03-22T09:57:48;12.77;;;9.55;;
10450;SDS011;5273;51.290;6.918;2024-03-22T10:00:18;16.77;;;10.13;;
10450;SDS011;5273;51.290;6.918;2024-03-22T10:02:45;13.38;;;9.65;;
10450;SDS011;5273;51.290;6.918;2024-03-22T10:05:13;12.50;;;8.73;;
10450;SDS011;5273;51.290;6.918;2024-03-22T10:07:40;16.45;;;9.65;;
10450;SDS011;5273;51.290;6.918;2024-03-22T10:10:07;14.40;;;8.73;;
10450;SDS011;5273;51.290;6.918;2024-03-22T10:12:33;12.57;;;8.98;;
10450;SDS011;5273;51.290;6.918;2024-03-22T10:15:00;11.63;;;8.73;;
10450;SDS011;5273;51.290;6.918;2024-03-22T10:17:26;10.48;;;8.30;;
10450;SDS011;5273;51.290;6.918;2024-03-22T10:19:53;11.35;;;8.75;;
10450;SDS011;5273;51.290;6.918;2024-03-22T10:22:19;10.75;;;8.18;;
10450;SDS011;5273;51.290;6.918;2024-03-22T10:24:48;10.70;;;7.80;;
10450;SDS011;5273;51.290;6.918;2024-03-22T10:27:14;11.88;;;8.13;;
10450;SDS011;5273;51.290;6.918;2024-03-22T10:29:41;14.65;;;8.93;;
10450;SDS011;5273;51.290;6.918;2024-03-22T10:32:07;12.77;;;8.65;;
10450;SDS011;5273;51.290;6.918;2024-03-22T10:34:35;12.35;;;8.07;;
10450;SDS011;5273;51.290;6.918;2024-03-22T10:37:02;9.23;;;7.53;;
10450;SDS011;5273;51.290;6.918;2024-03-22T10:39:30;11.93;;;8.15;;
10450;SDS011;5273;51.290;6.918;2024-03-22T10:41:57;16.20;;;8.05;;
10450;SDS011;5273;51.290;6.918;2024-03-22T10:44:24;12.02;;;8.50;;
10450;SDS011;5273;51.290;6.918;2024-03-22T10:46:50;11.25;;;8.38;;
10450;SDS011;5273;51.290;6.918;2024-03-22T10:49:20;13.10;;;8.63;;
10450;SDS011;5273;51.290;6.918;2024-03-22T10:51:46;11.23;;;8.68;;
10450;SDS011;5273;51.290;6.918;2024-03-22T10:54:18;13.75;;;8.93;;
10450;SDS011;5273;51.290;6.918;2024-03-22T10:56:47;14.18;;;10.18;;
10450;SDS011;5273;51.290;6.918;2024-03-22T10:59:19;12.93;;;9.20;;
10450;SDS011;5273;51.290;6.918;2024-03-22T11:01:46;14.18;;;8.80;;
10450;SDS011;5273;51.290;6.918;2024-03-22T11:04:15;11.52;;;8.48;;
10450;SDS011;5273;51.290;6.918;2024-03-22T11:06:46;10.98;;;8.48;;
10450;SDS011;5273;51.290;6.918;2024-03-22T11:09:18;14.55;;;8.88;;
10450;SDS011;5273;51.290;6.918;2024-03-22T11:11:46;12.27;;;8.52;;
10450;SDS011;5273;51.290;6.918;2024-03-22T11:14:13;14.13;;;8.63;;
10450;SDS011;5273;51.290;6.918;2024-03-22T11:16:43;11.38;;;8.63;;
10450;SDS011;5273;51.290;6.918;2024-03-22T11:19:10;15.48;;;8.98;;
10450;SDS011;5273;51.290;6.918;2024-03-22T11:21:36;11.30;;;8.55;;
10450;SDS011;5273;51.290;6.918;2024-03-22T11:24:04;13.77;;;9.70;;
10450;SDS011;5273;51.290;6.918;2024-03-22T11:26:30;11.82;;;9.02;;
10450;SDS011;5273;51.290;6.918;2024-03-22T11:28:56;12.02;;;8.93;;
10450;SDS011;5273;51.290;6.918;2024-03-22T11:31:22;13.13;;;9.60;;
10450;SDS011;5273;51.290;6.918;2024-03-22T11:33:54;16.70;;;9.73;;
10450;SDS011;5273;51.290;6.918;2024-03-22T11:36:20;12.65;;;9.02;;
10450;SDS011;5273;51.290;6.918;2024-03-22T11:38:47;13.30;;;9.70;;
10450;SDS011;5273;51.290;6.918;2024-03-22T11:41:14;12.32;;;9.93;;
10450;SDS011;5273;51.290;6.918;2024-03-22T11:43:44;15.75;;;10.55;;
10450;SDS011;5273;51.290;6.918;2024-03-22T11:46:11;14.55;;;9.82;;
10450;SDS011;5273;51.290;6.918;2024-03-22T11:48:39;13.52;;;9.60;;
10450;SDS011;5273;51.290;6.918;2024-03-22T11:51:06;14.30;;;9.43;;
10450;SDS011;5273;51.290;6.918;2024-03-22T11:53:33;12.57;;;9.10;;
10450;SDS011;5273;51.290;6.918;2024-03-22T11:55:59;12.38;;;9.30;;
10450;SDS011;5273;51.290;6.918;2024-03-22T11:58:28;16.65;;;10.50;;
10450;SDS011;5273;51.290;6.918;2024-03-22T12:00:55;14.80;;;10.50;;
10450;SDS011;5273;51.290;6.918;2024-03-22T12:03:22;15.25;;;10.52;;
10450;SDS011;5273;51.290;6.918;2024-03-22T12:05:48;15.18;;;11.10;;
10450;SDS011;5273;51.290;6.918;2024-03-22T12:08:17;12.52;;;10.70;;
10450;SDS011;5273;51.290;6.918;2024-03-22T12:10:43;16.02;;;11.77;;
10450;SDS011;5273;51.290;6.918;2024-03-22T12:13:10;15.60;;;11.60;;
10450;SDS011;5273;51.290;6.918;2024-03-22T12:15:36;15.05;;;11.90;;
10450;SDS011;5273;51.290;6.918;2024-03-22T12:18:03;17.05;;;11.70;;
10450;SDS011;5273;51.290;6.918;2024-03-22T12:20:29;17.52;;;12.07;;
10450;SDS011;5273;51.290;6.918;2024-03-22T12:22:55;17.80;;;11.88;;
10450;SDS011;5273;51.290;6.918;2024-03-22T12:25:23;15.13;;;11.55;;
10450;SDS011;5273;51.290;6.918;2024-03-22T12:27:50;13.80;;;11.13;;
10450;SDS011;5273;51.290;6.918;2024-03-22T12:30:16;16.58;;;11.50;;
10450;SDS011;5273;51.290;6.918;2024-03-22T12:32:43;15.68;;;11.45;;
10450;SDS011;5273;51.290;6.918;2024-03-22T12:35:09;17.05;;;11.52;;
10450;SDS011;5273;51.290;6.918;2024-03-22T12:37:36;19.98;;;11.85;;
10450;SDS011;5273;51.290;6.918;2024-03-22T12:40:01;15.13;;;11.00;;
10450;SDS011;5273;51.290;6.918;2024-03-22T12:42:30;15.55;;;11.48;;
10450;SDS011;5273;51.290;6.918;2024-03-22T12:44:56;15.60;;;10.90;;
10450;SDS011;5273;51.290;6.918;2024-03-22T12:47:23;14.45;;;10.50;;
10450;SDS011;5273;51.290;6.918;2024-03-22T12:49:48;14.32;;;10.95;;
10450;SDS011;5273;51.290;6.918;2024-03-22T12:52:15;13.77;;;10.45;;
10450;SDS011;5273;51.290;6.918;2024-03-22T12:54:41;14.05;;;10.25;;
10450;SDS011;5273;51.290;6.918;2024-03-22T12:57:08;18.02;;;10.68;;
10450;SDS011;5273;51.290;6.918;2024-03-22T12:59:37;14.73;;;10.48;;
10450;SDS011;5273;51.290;6.918;2024-03-22T13:02:04;11.07;;;8.55;;
10450;SDS011;5273;51.290;6.918;2024-03-22T13:04:31;9.90;;;7.53;;
10450;SDS011;5273;51.290;6.918;2024-03-22T13:06:57;10.23;;;7.47;;
10450;SDS011;5273;51.290;6.918;2024-03-22T13:09:23;11.77;;;8.00;;
10450;SDS011;5273;51.290;6.918;2024-03-22T13:11:50;13.70;;;8.02;;
10450;SDS011;5273;51.290;6.918;2024-03-22T13:14:16;12.43;;;8.38;;
10450;SDS011;5273;51.290;6.918;2024-03-22T13:16:45;11.80;;;8.25;;
10450;SDS011;5273;51.290;6.918;2024-03-22T13:19:11;11.43;;;7.70;;
10450;SDS011;5273;51.290;6.918;2024-03-22T13:21:40;11.77;;;8.35;;
10450;SDS011;5273;51.290;6.918;2024-03-22T13:24:05;9.98;;;7.78;;
10450;SDS011;5273;51.290;6.918;2024-03-22T13:26:33;14.98;;;8.63;;
10450;SDS011;5273;51.290;6.918;2024-03-22T13:28:58;10.68;;;8.40;;
10450;SDS011;5273;51.290;6.918;2024-03-22T13:31:25;11.70;;;8.98;;
10450;SDS011;5273;51.290;6.918;2024-03-22T13:33:52;11.82;;;8.57;;
10450;SDS011;5273;51.290;6.918;2024-03-22T13:36:19;12.13;;;8.20;;
10450;SDS011;5273;51.290;6.918;2024-03-22T13:38:45;11.32;;;8.27;;
10450;SDS011;5273;51.290;6.918;2024-03-22T13:41:12;13.07;;;8.65;;
10450;SDS011;5273;51.290;6.918;2024-03-22T13:43:38;12.60;;;8.55;;
10450;SDS011;5273;51.290;6.918;2024-03-22T13:46:05;11.98;;;8.57;;
10450;SDS011;5273;51.290;6.918;2024-03-22T13:48:30;14.00;;;8.45;;
10450;SDS011;5273;51.290;6.918;2024-03-22T13:50:59;12.30;;;8.45;;
10450;SDS011;5273;51.290;6.918;2024-03-22T13:53:25;13.48;;;9.27;;
10450;SDS011;5273;51.290;6.918;2024-03-22T13:55:53;14.40;;;9.57;;
10450;SDS011;5273;51.290;6.918;2024-03-22T13:58:19;11.77;;;9.05;;
10450;SDS011;5273;51.290;6.918;2024-03-22T14:00:46;13.77;;;9.35;;
10450;SDS011;5273;51.290;6.918;2024-03-22T14:03:12;12.85;;;9.13;;
10450;SDS011;5273;51.290;6.918;2024-03-22T14:05:39;13.73;;;9.55;;
10450;SDS011;5273;51.290;6.918;2024-03-22T14:08:06;12.65;;;9.38;;
10450;SDS011;5273;51.290;6.918;2024-03-22T14:10:33;13.18;;;9.82;;
10450;SDS011;5273;51.290;6.918;2024-03-22T14:12:59;14.15;;;9.80;;
10450;SDS011;5273;51.290;6.918;2024-03-22T14:15:27;14.43;;;9.38;;
10450;SDS011;5273;51.290;6.918;2024-03-22T14:17:56;13.50;;;9.75;;
10450;SDS011;5273;51.290;6.918;2024-03-22T14:20:24;13.38;;;9.77;;
10450;SDS011;5273;51.290;6.918;2024-03-22T14:22:50;16.05;;;9.70;;
10450;SDS011;5273;51.290;6.918;2024-03-22T14:25:18;13.30;;;10.10;;
10450;SDS011;5273;51.290;6.918;2024-03-22T14:27:44;15.60;;;10.32;;
10450;SDS011;5273;51.290;6.918;2024-03-22T14:30:12;11.95;;;9.82;;
10450;SDS011;5273;51.290;6.918;2024-03-22T14:32:38;14.45;;;10.18;;
10450;SDS011;5273;51.290;6.918;2024-03-22T14:35:06;11.60;;;10.10;;